Time;durP1;ratioP1;P1;durP2;ratioP2;P2;SDS_P1;SDS_P2;PMS_P1;PMS_P2;Temp;Humidity;BMP_temperature;BMP_pressure;BME280_temperature;BME280_humidity;BME280_pressure;Samples;Min_cycle;Max_cycle;Signal;HPM_P1;HPM_P2
2023/01/29 00:02:17;;;;;;;40.08;21.08;;;;;;;-1.71;84.69;102973.50;5046268;28;20033;-69
2023/01/29 00:04:44;;;;;;;40.33;22.33;;;;;;;-1.69;84.77;102973.56;5047088;28;20538;-69
2023/01/29 00:07:11;;;;;;;36.63;21.23;;;;;;;-1.72;84.67;102970.00;5045453;28;20033;-69
2023/01/29 00:09:39;;;;;;;37.53;20.50;;;;;;;-1.76;84.72;102960.31;5063373;28;20037;-68
2023/01/29 00:12:07;;;;;;;37.80;20.88;;;;;;;-1.81;84.49;102963.44;5044740;28;20104;-69
2023/01/29 00:14:35;;;;;;;40.35;20.30;;;;;;;-1.87;84.19;102954.53;5044119;28;20073;-69
2023/01/29 00:17:02;;;;;;;37.38;20.42;;;;;;;-1.93;84.24;102955.88;5046327;28;20037;-70
2023/01/29 00:19:29;;;;;;;39.20;20.35;;;;;;;-2.00;84.06;102954.69;5045765;28;20050;-70
2023/01/29 00:21:56;;;;;;;36.50;20.35;;;;;;;-2.08;84.06;102954.25;5047347;28;20072;-68
2023/01/29 00:24:22;;;;;;;36.30;19.73;;;;;;;-2.12;84.10;102944.53;5054177;28;20037;-68
2023/01/29 00:26:50;;;;;;;38.28;19.92;;;;;;;-2.17;84.26;102940.81;5045242;28;20128;-68
2023/01/29 00:29:17;;;;;;;38.08;20.20;;;;;;;-2.22;84.26;102934.47;5040788;28;20045;-70
2023/01/29 00:31:44;;;;;;;39.70;21.52;;;;;;;-2.26;84.31;102929.97;5043463;28;20091;-70
2023/01/29 00:34:12;;;;;;;38.35;20.45;;;;;;;-2.30;84.26;102931.50;5042877;28;20045;-70
2023/01/29 00:36:39;;;;;;;37.78;20.33;;;;;;;-2.32;84.39;102934.75;5045388;28;20045;-70
2023/01/29 00:39:09;;;;;;;40.22;19.70;;;;;;;-2.35;84.62;102938.97;5047451;28;20120;-69
2023/01/29 00:50:12;;;;;;;38.53;19.08;;;;;;;-2.48;84.46;102917.50;4982148;28;20047;-69
2023/01/29 00:52:42;;;;;;;35.33;18.85;;;;;;;-2.51;84.48;102913.06;5044221;28;20045;-69
2023/01/29 00:55:10;;;;;;;40.10;19.25;;;;;;;-2.53;84.63;102909.50;5042597;28;20462;-69
2023/01/29 00:57:38;;;;;;;34.63;18.75;;;;;;;-2.54;84.63;102907.72;5043055;28;20044;-69
2023/01/29 01:00:10;;;;;;;37.92;19.98;;;;;;;-2.56;84.65;102904.19;5043212;28;20507;-69
2023/01/29 01:05:23;;;;;;;32.75;17.15;;;;;;;-2.64;84.50;102903.72;5045281;28;20523;-69
2023/01/29 01:07:54;;;;;;;36.38;19.15;;;;;;;-2.66;84.56;102907.91;5044389;28;20084;-68
2023/01/29 01:10:29;;;;;;;38.55;19.05;;;;;;;-2.68;84.67;102904.34;5041466;28;20149;-68
2023/01/29 01:13:01;;;;;;;36.00;19.02;;;;;;;-2.72;84.75;102908.44;5043750;28;20053;-68
2023/01/29 01:15:36;;;;;;;39.22;20.55;;;;;;;-2.73;84.64;102913.53;5045238;28;20831;-69
2023/01/29 01:18:04;;;;;;;35.85;17.88;;;;;;;-2.77;84.42;102912.47;5045654;28;20038;-69
2023/01/29 01:20:34;;;;;;;38.42;18.45;;;;;;;-2.82;84.71;102901.88;5049867;28;20136;-69
2023/01/29 01:23:02;;;;;;;38.85;18.98;;;;;;;-2.84;84.62;102905.16;5045136;28;21034;-69
2023/01/29 01:25:30;;;;;;;37.28;18.85;;;;;;;-2.83;84.93;102914.69;5043250;28;20037;-69
2023/01/29 01:27:58;;;;;;;37.30;20.48;;;;;;;-2.86;85.05;102905.06;5043322;28;20038;-70
2023/01/29 01:30:26;;;;;;;38.65;18.20;;;;;;;-2.86;84.95;102905.06;5048019;28;20040;-70
2023/01/29 01:32:54;;;;;;;39.72;18.90;;;;;;;-2.87;85.10;102903.28;5047830;28;20068;-69
2023/01/29 01:35:21;;;;;;;37.10;18.92;;;;;;;-2.88;85.14;102914.41;5045113;28;20413;-68
2023/01/29 01:37:48;;;;;;;40.15;19.98;;;;;;;-2.91;84.99;102909.09;5041830;28;20085;-69
2023/01/29 01:40:19;;;;;;;37.83;18.95;;;;;;;-2.88;85.25;102918.69;5044994;28;20488;-68
2023/01/29 01:42:53;;;;;;;41.10;20.33;;;;;;;-2.88;85.35;102917.00;5036298;28;20529;-69
2023/01/29 01:45:25;;;;;;;37.50;19.15;;;;;;;-2.87;85.55;102918.78;5044809;28;20148;-68
2023/01/29 01:48:11;;;;;;;36.90;17.70;;;;;;;-2.84;85.60;102921.56;5060023;28;20038;-69
2023/01/29 01:50:49;;;;;;;36.67;18.92;;;;;;;-2.81;85.86;102923.41;5044919;28;20044;-69
2023/01/29 01:53:38;;;;;;;37.20;19.05;;;;;;;-2.73;86.36;102916.13;5043088;28;20049;-68
2023/01/29 01:56:15;;;;;;;37.85;19.90;;;;;;;-2.67;86.21;102917.38;5062310;28;20072;-68
2023/01/29 01:58:55;;;;;;;38.08;19.63;;;;;;;-2.64;86.22;102916.66;5057302;28;20125;-69
2023/01/29 02:01:26;;;;;;;35.65;18.73;;;;;;;-2.64;85.84;102926.09;5045479;28;20100;-69
2023/01/29 02:10:12;;;;;;;37.63;18.17;;;;;;;-2.65;85.85;102917.44;5043814;28;20701;-67
2023/01/29 02:12:45;;;;;;;33.42;17.80;;;;;;;-2.66;85.96;102913.06;5061052;28;20069;-68
2023/01/29 02:15:15;;;;;;;;;;;;;;;-2.67;85.80;102914.78;5045518;28;20143;-71
2023/01/29 02:17:46;;;;;;;32.88;16.80;;;;;;;-2.64;85.95;102920.94;5033115;28;20656;-70
2023/01/29 02:20:23;;;;;;;35.63;18.10;;;;;;;-2.62;86.02;102922.78;5046170;28;20072;-71
2023/01/29 02:22:54;;;;;;;37.15;18.58;;;;;;;-2.58;86.18;102924.72;5046937;28;20037;-70
2023/01/29 02:26:03;;;;;;;34.55;17.27;;;;;;;-2.54;86.06;102916.38;5063083;28;20549;-69
2023/01/29 02:29:21;;;;;;;35.45;17.77;;;;;;;-2.50;86.11;102922.59;5045629;28;20457;-69
2023/01/29 02:32:08;;;;;;;33.45;17.92;;;;;;;-2.45;86.22;102931.50;5043109;28;20127;-69
2023/01/29 02:38:27;;;;;;;36.95;18.17;;;;;;;-2.34;86.33;102938.16;5044140;28;20034;-69
2023/01/29 02:41:03;;;;;;;35.28;17.55;;;;;;;-2.26;86.34;102933.44;5046027;28;20045;-69
2023/01/29 02:43:43;;;;;;;36.42;18.80;;;;;;;-2.17;86.57;102927.91;5048051;28;20041;-69
2023/01/29 02:46:21;;;;;;;41.03;19.15;;;;;;;-2.08;86.48;102930.97;5062086;28;20033;-69
2023/01/29 02:49:08;;;;;;;37.85;19.40;;;;;;;-1.97;86.55;102931.56;5063366;28;20976;-69
2023/01/29 02:52:06;;;;;;;36.88;19.25;;;;;;;-1.90;86.47;102932.78;5062745;28;20080;-68
2023/01/29 02:54:52;;;;;;;36.67;20.05;;;;;;;-1.83;86.55;102916.78;5045363;28;20038;-69
2023/01/29 02:57:29;;;;;;;37.17;19.30;;;;;;;-1.78;86.37;102917.94;5060116;28;20041;-68
2023/01/29 03:00:03;;;;;;;38.00;20.42;;;;;;;-1.73;86.20;102924.25;5040050;28;20063;-68
2023/01/29 03:02:41;;;;;;;35.15;18.35;;;;;;;-1.70;86.28;102918.38;5058577;28;20046;-68
2023/01/29 03:05:20;;;;;;;35.13;18.83;;;;;;;-1.64;86.26;102913.50;5037841;28;20120;-68
2023/01/29 03:07:59;;;;;;;34.88;19.45;;;;;;;-1.58;86.30;102929.34;5047048;28;20048;-68
2023/01/29 03:10:39;;;;;;;37.45;19.85;;;;;;;-1.54;86.22;102924.34;5059753;28;20121;-70
2023/01/29 03:13:25;;;;;;;37.08;20.98;;;;;;;-1.51;86.10;102925.41;5044063;28;20053;-70
2023/01/29 03:16:08;;;;;;;37.95;20.13;;;;;;;-1.50;86.07;102924.59;5041318;28;20069;-68
2023/01/29 03:18:49;;;;;;;38.40;20.70;;;;;;;-1.49;86.22;102923.78;5047398;28;20042;-68
2023/01/29 03:33:04;;;;;;;39.20;20.33;;;;;;;-1.27;85.92;102930.09;5053918;28;20037;-69
2023/01/29 03:35:38;;;;;;;;;;;;;;;-1.26;86.03;102921.53;5041421;28;20034;-70
2023/01/29 03:38:09;;;;;;;38.25;20.15;;;;;;;-1.23;85.89;102924.28;5042672;28;20017;-70
2023/01/29 03:40:51;;;;;;;36.13;21.40;;;;;;;-1.21;85.88;102917.47;5048047;28;20108;-69
2023/01/29 03:43:35;;;;;;;39.00;21.15;;;;;;;-1.18;85.77;102916.75;5050333;28;20101;-69
2023/01/29 03:46:30;;;;;;;38.15;21.52;;;;;;;-1.15;85.54;102896.16;5056049;28;20049;-69
2023/01/29 03:49:18;;;;;;;39.37;23.03;;;;;;;-1.15;85.64;102899.66;5042377;28;20047;-68
2023/01/29 03:51:58;;;;;;;41.10;22.17;;;;;;;-1.15;85.61;102898.75;5057931;28;20719;-69
2023/01/29 03:54:44;;;;;;;38.53;21.88;;;;;;;-1.12;85.64;102892.03;5059507;28;20037;-69
2023/01/29 03:57:14;;;;;;;39.35;22.60;;;;;;;-1.10;85.62;102892.13;5061788;28;20107;-69
2023/01/29 04:00:01;;;;;;;42.53;22.90;;;;;;;-1.07;85.54;102888.81;5059646;28;20108;-69
2023/01/29 04:02:55;;;;;;;42.80;22.65;;;;;;;-1.08;85.45;102884.44;5036119;28;20034;-69
2023/01/29 04:05:35;;;;;;;41.20;23.40;;;;;;;-1.09;85.45;102878.38;5039763;28;20041;-68
2023/01/29 04:08:26;;;;;;;39.25;22.75;;;;;;;-1.05;85.60;102876.84;5044065;28;20045;-68
2023/01/29 04:11:06;;;;;;;40.88;23.45;;;;;;;-1.03;85.59;102867.44;5023328;28;20072;-69
2023/01/29 04:13:35;;;;;;;39.50;22.65;;;;;;;-1.03;85.57;102870.03;5043547;28;20053;-69
2023/01/29 04:16:11;;;;;;;41.33;23.60;;;;;;;-1.04;85.51;102876.03;5044822;28;20049;-69
2023/01/29 04:19:05;;;;;;;39.55;23.33;;;;;;;-1.02;85.39;102874.41;5059965;28;20037;-69
2023/01/29 04:21:37;;;;;;;38.10;22.52;;;;;;;-1.00;85.63;102875.34;5049696;28;20137;-69
2023/01/29 04:24:07;;;;;;;39.80;22.73;;;;;;;-0.99;85.52;102874.53;5059649;28;20552;-70
2023/01/29 04:26:59;;;;;;;41.13;24.15;;;;;;;-0.99;85.37;102871.94;5043570;28;20034;-69
2023/01/29 04:29:50;;;;;;;44.58;24.42;;;;;;;-1.02;85.58;102862.34;5042884;28;20792;-69
2023/01/29 04:32:28;;;;;;;42.42;24.13;;;;;;;-0.99;85.39;102856.41;5058830;28;20072;-68
2023/01/29 04:35:30;;;;;;;42.65;24.52;;;;;;;-1.00;85.33;102858.13;5061375;28;20041;-69
2023/01/29 04:38:32;;;;;;;41.40;23.38;;;;;;;-1.00;85.31;102858.13;5047868;28;20129;-69
2023/01/29 04:41:34;;;;;;;42.78;24.48;;;;;;;-1.00;85.29;102846.88;5025806;28;20054;-68
2023/01/29 04:44:09;;;;;;;44.53;24.65;;;;;;;-1.00;85.46;102824.47;5045564;28;20529;-69
2023/01/29 04:47:05;;;;;;;42.72;23.05;;;;;;;-0.99;85.39;102825.34;5034061;28;20037;-68
2023/01/29 04:50:11;;;;;;;44.70;23.90;;;;;;;-0.98;85.35;102825.44;5047900;28;20030;-68
2023/01/29 04:52:51;;;;;;;40.58;24.15;;;;;;;-0.96;85.30;102818.59;5038048;28;20513;-67
2023/01/29 04:55:27;;;;;;;41.75;23.85;;;;;;;-0.92;85.48;102816.19;5045131;28;20072;-68
2023/01/29 04:58:28;;;;;;;42.38;23.38;;;;;;;-0.89;85.38;102808.56;5045672;28;20044;-67
2023/01/29 05:00:58;;;;;;;40.33;23.85;;;;;;;-0.88;85.34;102815.53;5043554;28;20041;-67
2023/01/29 05:03:28;;;;;;;40.10;23.40;;;;;;;-0.88;85.47;102812.94;5040304;28;20069;-68
2023/01/29 05:06:00;;;;;;;38.80;23.08;;;;;;;-0.86;85.30;102824.22;5044890;28;20085;-67
2023/01/29 05:08:31;;;;;;;41.53;24.70;;;;;;;-0.84;85.30;102813.16;5045563;28;20772;-67
2023/01/29 05:10:59;;;;;;;40.83;23.70;;;;;;;-0.83;85.22;102816.63;5042319;28;20064;-69
2023/01/29 05:13:31;;;;;;;41.40;24.05;;;;;;;-0.81;85.35;102805.50;5055979;28;21471;-68
2023/01/29 05:16:12;;;;;;;40.38;23.83;;;;;;;-0.78;85.31;102809.97;5052444;28;20520;-68
2023/01/29 05:18:39;;;;;;;38.42;22.27;;;;;;;-0.75;85.32;102802.34;5044216;28;20042;-68
2023/01/29 05:21:08;;;;;;;39.05;22.42;;;;;;;-0.70;85.47;102789.59;5043018;28;20037;-68
2023/01/29 05:23:36;;;;;;;38.97;22.98;;;;;;;-0.66;85.04;102804.47;5046771;28;20085;-68
2023/01/29 05:26:04;;;;;;;38.33;22.15;;;;;;;-0.64;85.30;102795.97;5060415;28;20100;-69
2023/01/29 05:28:31;;;;;;;38.33;23.25;;;;;;;-0.62;85.19;102790.88;5059260;28;20041;-69
2023/01/29 05:30:58;;;;;;;37.38;22.75;;;;;;;-0.58;85.21;102791.91;5059452;28;20550;-69
2023/01/29 05:33:30;;;;;;;35.97;21.92;;;;;;;-0.55;85.22;102792.94;5043748;28;20045;-69
2023/01/29 05:35:58;;;;;;;37.03;22.85;;;;;;;-0.50;84.91;102798.31;5058466;28;20750;-69
2023/01/29 05:38:25;;;;;;;35.80;22.60;;;;;;;-0.48;85.00;102789.81;5044161;28;20042;-69
2023/01/29 05:40:53;;;;;;;36.13;22.35;;;;;;;-0.44;84.73;102788.22;5056951;28;20604;-69
2023/01/29 05:43:24;;;;;;;38.15;21.83;;;;;;;-0.42;84.67;102791.78;5038812;28;20043;-69
2023/01/29 05:45:59;;;;;;;37.05;21.52;;;;;;;-0.41;84.53;102795.28;5043614;28;20033;-69
2023/01/29 05:48:28;;;;;;;37.47;21.80;;;;;;;-0.39;84.57;102804.00;5045504;28;20096;-68
2023/01/29 05:51:03;;;;;;;37.17;21.75;;;;;;;-0.37;84.46;102808.47;5044227;28;20120;-69
2023/01/29 05:53:31;;;;;;;36.28;22.02;;;;;;;-0.35;84.49;102805.94;5027342;28;20048;-69
2023/01/29 05:56:03;;;;;;;35.22;22.13;;;;;;;-0.34;84.50;102811.16;5039083;28;20106;-69
2023/01/29 05:58:31;;;;;;;37.17;22.23;;;;;;;-0.32;84.48;102819.03;5045765;28;20046;-69
2023/01/29 06:01:18;;;;;;;38.50;22.23;;;;;;;-0.28;84.35;102833.03;5044753;28;20044;-69
2023/01/29 06:03:46;;;;;;;36.40;22.27;;;;;;;-0.28;84.51;102833.03;5045525;28;20054;-69
2023/01/29 06:06:14;;;;;;;37.83;21.77;;;;;;;-0.26;84.45;102832.28;5045822;28;20044;-69
2023/01/29 06:08:42;;;;;;;36.78;22.83;;;;;;;-0.24;84.48;102833.25;5046074;28;20038;-69
2023/01/29 06:11:12;;;;;;;36.28;21.63;;;;;;;-0.22;84.54;102828.09;5045087;28;20121;-69
2023/01/29 06:13:39;;;;;;;36.47;21.90;;;;;;;-0.21;84.50;102840.25;5045125;28;20060;-69
2023/01/29 06:16:09;;;;;;;38.35;22.27;;;;;;;-0.22;84.52;102847.16;5044604;28;20116;-70
2023/01/29 06:18:37;;;;;;;38.08;21.83;;;;;;;-0.22;84.44;102847.16;5046598;28;20034;-69
2023/01/29 06:21:08;;;;;;;36.85;21.13;;;;;;;-0.21;84.39;102842.84;5044985;28;20125;-70
2023/01/29 06:23:36;;;;;;;38.78;22.75;;;;;;;-0.21;84.42;102823.03;5061012;28;20042;-69
2023/01/29 06:26:07;;;;;;;37.33;22.23;;;;;;;-0.18;84.53;102820.53;5044849;28;20041;-69
2023/01/29 06:28:34;;;;;;;40.17;23.10;;;;;;;-0.19;84.35;102817.91;5043959;28;20091;-69
2023/01/29 06:31:03;;;;;;;36.45;22.20;;;;;;;-0.22;84.36;102799.59;5047582;28;20080;-70
2023/01/29 06:33:50;;;;;;;38.20;22.17;;;;;;;-0.25;84.38;102799.44;5038604;28;20129;-67
2023/01/29 06:36:18;;;;;;;39.47;23.23;;;;;;;-0.27;84.36;102807.16;5042602;28;20046;-68
2023/01/29 06:38:46;;;;;;;37.78;22.45;;;;;;;-0.28;84.53;102799.31;5039943;28;20576;-68
2023/01/29 06:41:24;;;;;;;40.28;22.35;;;;;;;-0.27;84.32;102801.09;5048118;28;20044;-68
2023/01/29 06:43:51;;;;;;;37.30;21.73;;;;;;;-0.29;84.48;102793.22;5049473;28;20047;-67
2023/01/29 06:46:18;;;;;;;38.05;22.58;;;;;;;-0.29;84.53;102795.81;5048905;28;20044;-67
2023/01/29 06:48:45;;;;;;;37.95;22.27;;;;;;;-0.28;84.62;102789.84;5048431;28;20099;-69
2023/01/29 06:51:12;;;;;;;38.53;22.52;;;;;;;-0.27;84.54;102793.31;5046575;28;20041;-69
2023/01/29 06:53:40;;;;;;;37.45;22.63;;;;;;;-0.27;84.54;102795.91;5048234;28;20044;-68
2023/01/29 06:56:08;;;;;;;38.63;23.23;;;;;;;-0.27;84.69;102789.00;5050546;28;20045;-68
2023/01/29 06:58:40;;;;;;;39.55;23.45;;;;;;;-0.26;84.79;102782.16;5040550;28;20117;-69
2023/01/29 07:01:11;;;;;;;37.92;22.88;;;;;;;-0.26;84.71;102783.03;5041698;28;20026;-69
2023/01/29 07:03:51;;;;;;;38.30;22.85;;;;;;;-0.25;84.82;102786.47;5045205;28;20047;-66
2023/01/29 07:06:19;;;;;;;38.95;22.70;;;;;;;-0.25;84.75;102794.25;5043395;28;20037;-67
2023/01/29 07:08:48;;;;;;;40.22;23.40;;;;;;;-0.23;84.68;102805.59;5040482;28;20048;-67
2023/01/29 07:11:15;;;;;;;41.00;24.17;;;;;;;-0.23;84.84;102803.91;5036309;28;20056;-68
2023/01/29 07:13:42;;;;;;;41.92;24.75;;;;;;;-0.20;84.95;102797.97;5027901;28;20045;-66
2023/01/29 07:16:09;;;;;;;37.28;22.70;;;;;;;-0.18;84.96;102796.34;5041423;28;20487;-67
2023/01/29 07:18:36;;;;;;;35.53;22.65;;;;;;;-0.18;84.82;102796.34;5055335;28;20046;-68
2023/01/29 07:21:06;;;;;;;37.28;22.02;;;;;;;-0.17;84.85;102805.91;5044333;28;20045;-69
2023/01/29 07:23:33;;;;;;;41.58;23.77;;;;;;;-0.17;84.94;102804.19;5059645;28;20092;-67
2023/01/29 07:26:05;;;;;;;40.20;23.77;;;;;;;-0.15;84.94;102801.63;5044130;28;20030;-68
2023/01/29 07:28:38;;;;;;;38.70;23.27;;;;;;;-0.14;84.94;102792.19;5042152;28;20116;-67
2023/01/29 07:31:10;;;;;;;43.10;23.65;;;;;;;-0.14;84.88;102777.50;5041123;28;20042;-69
2023/01/29 07:33:45;;;;;;;41.08;23.85;;;;;;;-0.13;84.87;102781.00;5055809;28;20506;-67
2023/01/29 07:36:12;;;;;;;42.03;25.00;;;;;;;-0.11;85.04;102777.63;5044579;28;20041;-68
2023/01/29 07:38:39;;;;;;;41.15;24.52;;;;;;;-0.08;84.82;102785.56;5054675;28;20132;-66
2023/01/29 07:41:08;;;;;;;42.25;24.95;;;;;;;-0.06;85.00;102786.53;5042450;28;20048;-67
2023/01/29 07:43:35;;;;;;;42.05;24.92;;;;;;;-0.04;84.87;102781.41;5040722;28;20054;-68
2023/01/29 07:46:03;;;;;;;41.85;24.58;;;;;;;-0.01;84.89;102782.41;5060280;28;20631;-68
2023/01/29 07:48:31;;;;;;;43.40;23.92;;;;;;;0.00;84.87;102778.13;5045680;28;20041;-69
2023/01/29 07:50:59;;;;;;;42.22;24.83;;;;;;;0.02;84.83;102780.78;5028113;28;20109;-68
2023/01/29 07:53:27;;;;;;;43.03;24.33;;;;;;;0.05;84.96;102780.94;5060221;28;20092;-69
2023/01/29 07:55:55;;;;;;;45.10;24.13;;;;;;;0.10;84.99;102787.19;5066938;28;20150;-68
2023/01/29 07:58:22;;;;;;;43.80;24.42;;;;;;;0.12;84.90;102794.22;5049794;28;20043;-67
2023/01/29 08:00:49;;;;;;;43.63;24.45;;;;;;;0.17;85.06;102789.22;5063634;28;20045;-68
2023/01/29 08:03:19;;;;;;;43.72;24.15;;;;;;;0.20;84.88;102793.69;5063697;28;20048;-68
2023/01/29 08:05:47;;;;;;;44.45;25.35;;;;;;;0.21;84.87;102790.25;5051952;28;20040;-68
2023/01/29 08:08:14;;;;;;;45.45;25.63;;;;;;;0.22;84.85;102792.94;5050767;28;20073;-68
2023/01/29 08:10:41;;;;;;;41.63;24.08;;;;;;;0.23;84.79;102784.31;5062777;28;20034;-68
2023/01/29 08:13:08;;;;;;;42.70;24.95;;;;;;;0.24;84.86;102791.28;5042352;28;20131;-67
2023/01/29 08:15:35;;;;;;;40.55;24.25;;;;;;;0.28;84.70;102787.13;5062570;28;20102;-68
2023/01/29 08:18:22;;;;;;;40.80;24.80;;;;;;;0.28;84.66;102775.03;5040969;28;20068;-68
2023/01/29 08:20:49;;;;;;;40.85;23.65;;;;;;;0.32;84.70;102770.84;5060726;28;20051;-68
2023/01/29 08:23:18;;;;;;;39.58;24.05;;;;;;;0.34;84.61;102760.56;5047581;28;20045;-69
2023/01/29 08:25:45;;;;;;;42.45;24.48;;;;;;;0.43;85.37;102748.84;5057937;28;20041;-69
2023/01/29 08:28:13;;;;;;;39.97;22.88;;;;;;;0.65;86.17;102744.56;5042069;28;20045;-68
2023/01/29 08:30:40;;;;;;;39.58;23.33;;;;;;;0.85;85.71;102736.69;5044281;28;20037;-69
2023/01/29 08:33:07;;;;;;;41.45;23.33;;;;;;;0.99;84.74;102737.22;5059321;28;20372;-69
2023/01/29 08:35:35;;;;;;;34.25;21.63;;;;;;;1.13;84.11;102732.56;5063693;28;20524;-69
2023/01/29 08:38:04;;;;;;;36.05;22.60;;;;;;;1.21;83.77;102737.25;5045557;28;20033;-69
2023/01/29 08:40:33;;;;;;;37.28;22.20;;;;;;;1.27;83.15;102749.59;5052087;28;20536;-69
2023/01/29 08:43:05;;;;;;;38.03;22.85;;;;;;;1.32;82.87;102745.47;5061807;28;20492;-69
2023/01/29 08:45:40;;;;;;;35.67;22.35;;;;;;;1.37;82.48;102737.88;5053967;28;20285;-69
2023/01/29 08:48:08;;;;;;;40.50;23.33;;;;;;;1.47;82.50;102740.00;5052788;28;20094;-69
2023/01/29 08:50:36;;;;;;;35.67;21.05;;;;;;;1.51;82.11;102726.25;5053924;28;20056;-67
2023/01/29 08:53:07;;;;;;;37.72;22.10;;;;;;;1.49;82.00;102735.72;5043431;28;20565;-67
2023/01/29 08:55:40;;;;;;;37.42;22.02;;;;;;;1.44;81.83;102715.56;5046752;28;20095;-67
2023/01/29 08:58:11;;;;;;;40.78;23.17;;;;;;;1.37;81.83;102723.16;5047293;28;20044;-67
2023/01/29 09:00:38;;;;;;;36.35;22.00;;;;;;;1.32;81.93;102727.28;5043515;28;20045;-67
2023/01/29 09:03:06;;;;;;;38.50;22.20;;;;;;;1.29;82.17;102724.56;5077771;28;20045;-67
2023/01/29 09:05:36;;;;;;;35.90;21.83;;;;;;;1.27;82.24;102721.03;5043945;28;21379;-67
2023/01/29 09:08:05;;;;;;;36.20;21.75;;;;;;;1.28;82.16;102719.28;5056300;28;20043;-67
2023/01/29 09:10:33;;;;;;;40.55;22.63;;;;;;;1.29;82.28;102718.47;5051230;28;20506;-67
2023/01/29 09:13:00;;;;;;;36.97;22.17;;;;;;;1.29;82.23;102708.97;5052946;28;20053;-67
2023/01/29 09:15:27;;;;;;;34.95;22.20;;;;;;;1.32;82.46;102714.31;5060913;28;20041;-67
2023/01/29 09:17:54;;;;;;;36.70;21.95;;;;;;;1.33;82.24;102710.84;5045645;28;20045;-67
2023/01/29 09:20:21;;;;;;;38.42;22.98;;;;;;;1.35;82.43;102705.72;5045284;28;20125;-67
2023/01/29 09:22:50;;;;;;;38.60;22.40;;;;;;;1.38;82.07;102711.00;5053206;28;20964;-67
2023/01/29 09:25:17;;;;;;;37.30;22.80;;;;;;;1.38;82.17;102704.13;5057243;28;20047;-67
2023/01/29 09:27:45;;;;;;;41.40;24.55;;;;;;;1.43;82.33;102706.00;5062494;28;20041;-67
2023/01/29 09:30:12;;;;;;;50.30;33.45;;;;;;;1.44;82.03;102703.47;5040871;28;20628;-67
2023/01/29 09:32:39;;;;;;;44.17;28.60;;;;;;;1.41;81.89;102700.75;5045206;28;20121;-67
2023/01/29 09:35:21;;;;;;;45.47;27.02;;;;;;;1.43;81.95;102714.69;5048869;28;20051;-67
2023/01/29 09:37:50;;;;;;;48.97;33.47;;;;;;;1.45;81.92;102712.13;5044682;28;20041;-66
2023/01/29 09:40:34;;;;;;;40.35;25.85;;;;;;;1.49;82.04;102714.03;5054124;28;20033;-67
2023/01/29 09:43:39;;;;;;;38.05;25.00;;;;;;;1.53;81.97;102709.00;5060237;28;20033;-68
2023/01/29 09:46:39;;;;;;;44.28;27.80;;;;;;;1.59;82.01;102725.66;5039089;28;20049;-68
2023/01/29 09:49:18;;;;;;;34.58;21.48;;;;;;;1.62;81.97;102723.16;5047725;28;20056;-68
2023/01/29 09:51:57;;;;;;;57.38;41.83;;;;;;;1.66;81.75;102717.28;5034622;28;20041;-68
2023/01/29 09:55:06;;;;;;;42.95;27.63;;;;;;;1.70;81.54;102720.03;5055513;28;21695;-68
2023/01/29 09:57:47;;;;;;;40.15;27.08;;;;;;;1.75;81.55;102717.59;5077655;28;20045;-67
2023/01/29 10:00:48;;;;;;;33.25;20.73;;;;;;;1.81;81.34;102717.81;5049991;28;20045;-68
2023/01/29 10:03:43;;;;;;;36.47;23.75;;;;;;;1.86;81.13;102707.56;5045176;28;20103;-68
2023/01/29 10:06:33;;;;;;;35.75;21.98;;;;;;;1.91;81.10;102707.72;5052552;28;20588;-67
2023/01/29 10:09:36;;;;;;;32.92;20.33;;;;;;;1.96;80.93;102711.41;5047840;28;20060;-68
2023/01/29 10:12:21;;;;;;;34.25;21.27;;;;;;;1.98;80.67;102713.22;5042945;28;20049;-67
2023/01/29 10:15:33;;;;;;;32.50;20.35;;;;;;;1.99;80.48;102708.88;5056448;28;20124;-67
2023/01/29 10:19:21;;;;;;;34.13;20.45;;;;;;;2.01;80.17;102710.72;5040956;28;20041;-67
2023/01/29 10:22:24;;;;;;;36.88;21.52;;;;;;;2.02;80.33;102709.00;5023930;28;20149;-68
2023/01/29 10:24:56;;;;;;;35.25;20.98;;;;;;;2.05;80.21;102710.81;5040008;28;20040;-67
2023/01/29 10:27:33;;;;;;;32.10;21.23;;;;;;;2.08;80.02;102710.94;5046960;28;20049;-67
2023/01/29 10:30:08;;;;;;;32.55;20.60;;;;;;;2.09;80.13;102710.97;5062975;28;20034;-67
2023/01/29 10:32:36;;;;;;;35.60;20.80;;;;;;;2.10;79.78;102707.53;5046743;28;20117;-67
2023/01/29 10:35:18;;;;;;;34.75;20.55;;;;;;;2.10;79.81;102710.16;5061953;28;20033;-67
2023/01/29 10:37:46;;;;;;;32.90;20.67;;;;;;;2.11;79.80;102714.53;5048508;28;20063;-68
2023/01/29 10:40:41;;;;;;;33.00;21.15;;;;;;;2.15;79.70;102715.50;5051688;28;20071;-67
2023/01/29 10:43:28;;;;;;;33.40;19.43;;;;;;;2.17;79.75;102711.25;5074576;28;20039;-67
2023/01/29 10:46:34;;;;;;;32.58;20.45;;;;;;;2.18;79.48;102707.81;5040692;28;20045;-68
2023/01/29 10:49:07;;;;;;;34.30;20.55;;;;;;;2.17;79.33;102700.84;5052295;28;20042;-67
2023/01/29 10:52:00;;;;;;;35.33;20.38;;;;;;;2.21;79.21;102699.22;5071361;28;20043;-67
2023/01/29 10:54:54;;;;;;;34.20;20.27;;;;;;;2.23;79.01;102698.47;5015711;28;20041;-68
2023/01/29 10:57:52;;;;;;;31.52;19.52;;;;;;;2.27;78.99;102686.44;5052410;28;20073;-67
2023/01/29 11:00:29;;;;;;;32.90;20.13;;;;;;;2.27;79.03;102676.91;5058843;28;20630;-68
2023/01/29 11:02:56;;;;;;;36.55;22.25;;;;;;;2.32;79.10;102671.84;5060988;28;20535;-67
2023/01/29 11:05:30;;;;;;;30.70;19.88;;;;;;;2.39;78.98;102665.13;5048843;28;20052;-67
2023/01/29 11:08:07;;;;;;;33.58;23.27;;;;;;;2.43;78.90;102652.25;5061373;28;20117;-67
2023/01/29 11:10:49;;;;;;;30.48;19.92;;;;;;;2.51;79.03;102649.00;5054397;28;20051;-74
2023/01/29 11:13:17;;;;;;;35.65;19.30;;;;;;;2.56;78.52;102655.25;5047917;28;20056;-71
2023/01/29 11:15:44;;;;;;;30.02;18.88;;;;;;;2.62;78.29;102652.84;5052522;28;20099;-68
2023/01/29 11:18:14;;;;;;;29.50;18.70;;;;;;;2.65;78.07;102642.53;5050613;28;20041;-67
2023/01/29 11:20:44;;;;;;;32.88;18.10;;;;;;;2.69;78.07;102635.69;5054650;28;20049;-67
2023/01/29 11:23:30;;;;;;;29.75;18.23;;;;;;;2.76;77.66;102629.84;5045231;28;20038;-67
2023/01/29 11:25:59;;;;;;;28.60;17.85;;;;;;;2.79;77.85;102625.63;5042043;28;20524;-67
2023/01/29 11:28:41;;;;;;;31.77;18.90;;;;;;;2.84;77.58;102617.94;5044139;28;20041;-67
2023/01/29 11:31:24;;;;;;;31.33;18.65;;;;;;;2.91;77.55;102619.00;5045444;28;20037;-68
2023/01/29 11:34:04;;;;;;;30.13;17.90;;;;;;;2.95;77.49;102607.84;5051981;28;21004;-67
2023/01/29 11:36:37;;;;;;;31.98;21.25;;;;;;;3.02;77.19;102608.91;5047008;28;20346;-69
2023/01/29 11:39:23;;;;;;;27.85;17.27;;;;;;;3.04;77.15;102597.69;5046008;28;20096;-68
2023/01/29 11:42:03;;;;;;;28.83;17.42;;;;;;;3.09;76.94;102590.91;5044054;28;20572;-68
2023/01/29 11:44:41;;;;;;;29.55;18.67;;;;;;;3.15;76.93;102584.06;5059601;28;20037;-68
2023/01/29 11:47:24;;;;;;;27.90;16.83;;;;;;;3.20;76.96;102582.50;5043072;28;20613;-68
2023/01/29 11:49:56;;;;;;;25.40;16.65;;;;;;;3.25;76.66;102567.84;5043799;28;20048;-68
2023/01/29 11:52:35;;;;;;;29.83;17.20;;;;;;;3.30;76.39;102563.66;5039965;28;20123;-68
2023/01/29 11:55:25;;;;;;;26.67;16.67;;;;;;;3.33;76.27;102560.25;5045410;28;20033;-68
2023/01/29 11:58:16;;;;;;;28.33;18.00;;;;;;;3.34;75.80;102552.47;5041531;28;20603;-68
2023/01/29 12:00:54;;;;;;;27.17;16.75;;;;;;;3.32;75.60;102545.44;5058901;28;20038;-69
2023/01/29 12:03:42;;;;;;;29.67;17.23;;;;;;;3.32;75.13;102548.91;5043981;28;20154;-68
2023/01/29 12:06:20;;;;;;;28.70;17.45;;;;;;;3.28;75.25;102547.09;5054049;28;20069;-68
2023/01/29 12:09:00;;;;;;;27.73;16.10;;;;;;;3.28;75.25;102540.97;5042258;28;20402;-68
2023/01/29 12:11:31;;;;;;;27.23;17.05;;;;;;;3.29;75.02;102540.16;5062019;28;20220;-68
2023/01/29 12:14:19;;;;;;;27.52;16.35;;;;;;;3.29;75.08;102540.16;5034045;28;20512;-68
2023/01/29 12:17:25;;;;;;;30.50;17.38;;;;;;;3.29;75.02;102533.22;5042696;28;20045;-67
2023/01/29 12:20:02;;;;;;;35.72;22.83;;;;;;;3.28;74.95;102521.03;5055860;28;20187;-71
2023/01/29 12:22:52;;;;;;;29.88;19.70;;;;;;;3.26;74.54;102525.31;5044813;28;20516;-68
2023/01/29 12:25:42;;;;;;;28.92;17.17;;;;;;;3.23;74.76;102515.69;5056792;28;20040;-68